Junction City, Wisconsin
Current Conditions -  °F | °C
As of 10:15 AM on Thursday 30 Oct 2014 (Local Time) from KSTE Reporting Station
Overcast Overcast  
Wind Chill: 33°   Ceiling: 9000
Heat Index: 37°   Visibility: 10mi
Dew Point: 32°   Wind: 5mph
Humidity: 84%   Direction: 240°WSW
Pressure: 30.07"   Gusts: NA
Location:  44.59°N, 89.77°W
Report Text: KSTE 301515Z AUTO 24004KT 10SM OVC090 03/00 A3007 RMK AO2 T00260002
Loading
Personal Weather Stations






























Interactive Weather Map
Tropical Storm Tracking
New forecast layout! Learn more

10-Day Weather Forecast

Advertisements
Track Severe Weather on mobile